sensor_id;sensor_type;location;lat;lon;timestamp;temperature;humidity
57857;DHT22;43683;48.650;9.290;2022-12-18T00:01:34;-11.60;92.50
57857;DHT22;43683;48.650;9.290;2022-12-18T00:04:02;-11.70;92.50
57857;DHT22;43683;48.650;9.290;2022-12-18T00:06:29;-11.90;92.60
57857;DHT22;43683;48.650;9.290;2022-12-18T00:08:57;-12.10;92.70
57857;DHT22;43683;48.650;9.290;2022-12-18T00:11:27;-12.10;92.80
57857;DHT22;43683;48.650;9.290;2022-12-18T00:13:54;-12.20;92.90
57857;DHT22;43683;48.650;9.290;2022-12-18T00:16:22;-12.40;92.90
57857;DHT22;43683;48.650;9.290;2022-12-18T00:18:50;-12.40;93.00
57857;DHT22;43683;48.650;9.290;2022-12-18T00:21:16;-12.50;93.00
57857;DHT22;43683;48.650;9.290;2022-12-18T00:23:43;-12.60;93.00
57857;DHT22;43683;48.650;9.290;2022-12-18T00:26:15;-12.70;93.10
57857;DHT22;43683;48.650;9.290;2022-12-18T00:28:41;-12.70;93.10
57857;DHT22;43683;48.650;9.290;2022-12-18T00:31:10;-12.80;93.10
57857;DHT22;43683;48.650;9.290;2022-12-18T00:33:37;-12.70;93.00
57857;DHT22;43683;48.650;9.290;2022-12-18T00:36:04;-12.60;92.90
57857;DHT22;43683;48.650;9.290;2022-12-18T00:38:29;-12.40;92.80
57857;DHT22;43683;48.650;9.290;2022-12-18T00:40:55;-12.20;92.50
57857;DHT22;43683;48.650;9.290;2022-12-18T00:43:20;-12.00;92.30
57857;DHT22;43683;48.650;9.290;2022-12-18T00:45:46;-11.80;92.00
57857;DHT22;43683;48.650;9.290;2022-12-18T00:48:12;-11.60;91.70
57857;DHT22;43683;48.650;9.290;2022-12-18T00:50:37;-11.50;91.50
57857;DHT22;43683;48.650;9.290;2022-12-18T00:53:03;-11.30;91.40
57857;DHT22;43683;48.650;9.290;2022-12-18T00:55:29;-11.20;91.20
57857;DHT22;43683;48.650;9.290;2022-12-18T00:57:54;-11.20;91.10
57857;DHT22;43683;48.650;9.290;2022-12-18T01:00:20;-11.20;91.10
57857;DHT22;43683;48.650;9.290;2022-12-18T01:02:46;-11.20;91.20
57857;DHT22;43683;48.650;9.290;2022-12-18T01:05:12;-11.30;91.40
57857;DHT22;43683;48.650;9.290;2022-12-18T01:07:38;-11.40;91.50
57857;DHT22;43683;48.650;9.290;2022-12-18T01:10:04;-11.60;91.70
57857;DHT22;43683;48.650;9.290;2022-12-18T01:12:30;-11.80;91.90
57857;DHT22;43683;48.650;9.290;2022-12-18T01:14:56;-12.00;92.20
57857;DHT22;43683;48.650;9.290;2022-12-18T01:17:22;-12.20;92.40
57857;DHT22;43683;48.650;9.290;2022-12-18T01:19:48;-12.30;92.60
57857;DHT22;43683;48.650;9.290;2022-12-18T01:22:13;-12.40;92.70
57857;DHT22;43683;48.650;9.290;2022-12-18T01:24:39;-12.60;92.80
57857;DHT22;43683;48.650;9.290;2022-12-18T01:27:04;-12.70;92.90
57857;DHT22;43683;48.650;9.290;2022-12-18T01:29:30;-12.70;93.00
57857;DHT22;43683;48.650;9.290;2022-12-18T01:31:56;-12.90;93.30
57857;DHT22;43683;48.650;9.290;2022-12-18T01:34:23;-13.00;93.00
57857;DHT22;43683;48.650;9.290;2022-12-18T01:36:48;-13.10;93.10
57857;DHT22;43683;48.650;9.290;2022-12-18T01:39:15;-13.20;93.10
57857;DHT22;43683;48.650;9.290;2022-12-18T01:41:41;-13.30;93.10
57857;DHT22;43683;48.650;9.290;2022-12-18T01:52:34;-13.50;93.10
57857;DHT22;43683;48.650;9.290;2022-12-18T01:55:02;-13.50;93.00
57857;DHT22;43683;48.650;9.290;2022-12-18T01:57:28;-13.50;93.00
57857;DHT22;43683;48.650;9.290;2022-12-18T01:59:59;-13.50;92.90
57857;DHT22;43683;48.650;9.290;2022-12-18T02:02:27;-13.40;92.80
57857;DHT22;43683;48.650;9.290;2022-12-18T02:04:54;-13.30;92.70
57857;DHT22;43683;48.650;9.290;2022-12-18T02:10:18;-13.10;92.40
57857;DHT22;43683;48.650;9.290;2022-12-18T02:12:57;-13.10;92.60
57857;DHT22;43683;48.650;9.290;2022-12-18T02:18:21;-12.80;92.10
57857;DHT22;43683;48.650;9.290;2022-12-18T02:21:12;-12.60;91.90
57857;DHT22;43683;48.650;9.290;2022-12-18T02:24:04;-12.50;91.80
57857;DHT22;43683;48.650;9.290;2022-12-18T02:26:46;-12.50;91.60
57857;DHT22;43683;48.650;9.290;2022-12-18T02:29:21;-12.40;91.60
57857;DHT22;43683;48.650;9.290;2022-12-18T02:31:52;-12.40;91.50
57857;DHT22;43683;48.650;9.290;2022-12-18T02:34:20;-12.40;91.50
57857;DHT22;43683;48.650;9.290;2022-12-18T02:36:47;-12.30;91.50
57857;DHT22;43683;48.650;9.290;2022-12-18T02:39:14;-12.40;91.50
57857;DHT22;43683;48.650;9.290;2022-12-18T02:41:41;-12.50;91.70
57857;DHT22;43683;48.650;9.290;2022-12-18T02:44:09;-12.50;91.80
57857;DHT22;43683;48.650;9.290;2022-12-18T02:46:41;-12.60;91.90
57857;DHT22;43683;48.650;9.290;2022-12-18T02:54:41;-12.80;92.10
57857;DHT22;43683;48.650;9.290;2022-12-18T02:57:18;-12.80;92.20
57857;DHT22;43683;48.650;9.290;2022-12-18T03:00:12;-12.90;92.30
57857;DHT22;43683;48.650;9.290;2022-12-18T03:02:54;-13.00;92.30
57857;DHT22;43683;48.650;9.290;2022-12-18T03:05:35;-13.10;92.40
57857;DHT22;43683;48.650;9.290;2022-12-18T03:08:10;-13.20;92.50
57857;DHT22;43683;48.650;9.290;2022-12-18T03:10:45;-13.20;92.50
57857;DHT22;43683;48.650;9.290;2022-12-18T03:13:31;-13.20;92.50
57857;DHT22;43683;48.650;9.290;2022-12-18T03:15:59;-13.10;92.40
57857;DHT22;43683;48.650;9.290;2022-12-18T03:18:35;-13.00;92.30
57857;DHT22;43683;48.650;9.290;2022-12-18T03:21:05;-12.90;92.20
57857;DHT22;43683;48.650;9.290;2022-12-18T03:23:35;-12.90;92.10
57857;DHT22;43683;48.650;9.290;2022-12-18T03:26:07;-13.00;92.10
57857;DHT22;43683;48.650;9.290;2022-12-18T03:28:38;-13.00;92.10
57857;DHT22;43683;48.650;9.290;2022-12-18T03:31:06;-13.00;92.10
57857;DHT22;43683;48.650;9.290;2022-12-18T03:34:03;-12.90;92.20
57857;DHT22;43683;48.650;9.290;2022-12-18T03:36:27;-12.90;92.20
57857;DHT22;43683;48.650;9.290;2022-12-18T03:38:53;-12.80;92.20
57857;DHT22;43683;48.650;9.290;2022-12-18T03:44:23;-12.80;92.10
57857;DHT22;43683;48.650;9.290;2022-12-18T03:47:13;-12.90;92.10
57857;DHT22;43683;48.650;9.290;2022-12-18T03:49:58;-12.90;92.20
57857;DHT22;43683;48.650;9.290;2022-12-18T03:52:36;-13.00;92.20
57857;DHT22;43683;48.650;9.290;2022-12-18T03:55:04;-13.10;92.30
57857;DHT22;43683;48.650;9.290;2022-12-18T03:57:31;-13.20;92.30
57857;DHT22;43683;48.650;9.290;2022-12-18T04:00:18;-13.30;92.40
57857;DHT22;43683;48.650;9.290;2022-12-18T04:02:55;-13.40;92.50
57857;DHT22;43683;48.650;9.290;2022-12-18T04:05:25;-13.50;92.60
57857;DHT22;43683;48.650;9.290;2022-12-18T04:07:51;-13.60;92.70
57857;DHT22;43683;48.650;9.290;2022-12-18T04:10:18;-13.60;92.70
57857;DHT22;43683;48.650;9.290;2022-12-18T04:12:44;-13.50;92.60
57857;DHT22;43683;48.650;9.290;2022-12-18T04:15:11;-13.50;92.60
57857;DHT22;43683;48.650;9.290;2022-12-18T04:17:38;-13.50;92.60
57857;DHT22;43683;48.650;9.290;2022-12-18T04:20:04;-13.60;92.60
57857;DHT22;43683;48.650;9.290;2022-12-18T04:22:30;-13.70;92.60
57857;DHT22;43683;48.650;9.290;2022-12-18T04:24:55;-13.70;92.70
57857;DHT22;43683;48.650;9.290;2022-12-18T04:27:21;-13.80;92.70
57857;DHT22;43683;48.650;9.290;2022-12-18T04:29:47;-13.90;92.70
57857;DHT22;43683;48.650;9.290;2022-12-18T04:32:12;-13.90;92.80
57857;DHT22;43683;48.650;9.290;2022-12-18T04:34:38;-14.00;92.70
57857;DHT22;43683;48.650;9.290;2022-12-18T04:37:03;-14.00;92.80
57857;DHT22;43683;48.650;9.290;2022-12-18T04:39:29;-14.00;92.70
57857;DHT22;43683;48.650;9.290;2022-12-18T04:41:55;-14.10;92.80
57857;DHT22;43683;48.650;9.290;2022-12-18T04:44:20;-14.20;92.80
57857;DHT22;43683;48.650;9.290;2022-12-18T04:46:46;-14.20;92.80
57857;DHT22;43683;48.650;9.290;2022-12-18T04:49:11;-14.20;92.80
57857;DHT22;43683;48.650;9.290;2022-12-18T04:51:37;-14.20;92.80
57857;DHT22;43683;48.650;9.290;2022-12-18T04:54:03;-14.30;92.70
57857;DHT22;43683;48.650;9.290;2022-12-18T04:56:31;-14.30;92.80
57857;DHT22;43683;48.650;9.290;2022-12-18T04:58:56;-14.40;92.70
57857;DHT22;43683;48.650;9.290;2022-12-18T05:01:22;-14.50;92.70
57857;DHT22;43683;48.650;9.290;2022-12-18T05:03:48;-14.50;92.80
57857;DHT22;43683;48.650;9.290;2022-12-18T05:06:13;-14.60;92.80
57857;DHT22;43683;48.650;9.290;2022-12-18T05:08:39;-14.60;92.80
57857;DHT22;43683;48.650;9.290;2022-12-18T05:11:12;-14.60;92.70
57857;DHT22;43683;48.650;9.290;2022-12-18T05:13:41;-14.60;92.70
57857;DHT22;43683;48.650;9.290;2022-12-18T05:16:07;-14.70;92.70
57857;DHT22;43683;48.650;9.290;2022-12-18T05:18:33;-14.70;92.70
57857;DHT22;43683;48.650;9.290;2022-12-18T05:20:58;-14.70;92.70
57857;DHT22;43683;48.650;9.290;2022-12-18T05:23:24;-14.70;92.60
57857;DHT22;43683;48.650;9.290;2022-12-18T05:25:58;-14.70;92.60
57857;DHT22;43683;48.650;9.290;2022-12-18T05:28:25;-14.70;92.60
57857;DHT22;43683;48.650;9.290;2022-12-18T05:30:51;-14.70;92.60
57857;DHT22;43683;48.650;9.290;2022-12-18T05:33:18;-14.70;92.50
57857;DHT22;43683;48.650;9.290;2022-12-18T05:35:50;-14.70;92.80
57857;DHT22;43683;48.650;9.290;2022-12-18T05:38:16;-14.60;92.40
57857;DHT22;43683;48.650;9.290;2022-12-18T05:40:42;-14.50;92.70
57857;DHT22;43683;48.650;9.290;2022-12-18T05:43:09;-14.50;92.30
57857;DHT22;43683;48.650;9.290;2022-12-18T05:45:37;-14.50;92.20
57857;DHT22;43683;48.650;9.290;2022-12-18T05:48:03;-14.40;92.30
57857;DHT22;43683;48.650;9.290;2022-12-18T05:50:29;-14.40;92.20
57857;DHT22;43683;48.650;9.290;2022-12-18T05:52:55;-14.40;92.50
57857;DHT22;43683;48.650;9.290;2022-12-18T05:55:20;-14.40;92.30
57857;DHT22;43683;48.650;9.290;2022-12-18T05:57:46;-14.50;92.30
57857;DHT22;43683;48.650;9.290;2022-12-18T06:00:12;-14.50;92.30
57857;DHT22;43683;48.650;9.290;2022-12-18T06:02:37;-14.50;92.40
57857;DHT22;43683;48.650;9.290;2022-12-18T06:05:03;-14.60;92.40
57857;DHT22;43683;48.650;9.290;2022-12-18T06:07:29;-14.60;92.40
57857;DHT22;43683;48.650;9.290;2022-12-18T06:09:54;-14.70;92.40
57857;DHT22;43683;48.650;9.290;2022-12-18T06:12:20;-14.70;92.50
57857;DHT22;43683;48.650;9.290;2022-12-18T06:14:46;-14.80;92.40
57857;DHT22;43683;48.650;9.290;2022-12-18T06:17:11;-14.80;92.50
57857;DHT22;43683;48.650;9.290;2022-12-18T06:19:37;-14.80;92.50
57857;DHT22;43683;48.650;9.290;2022-12-18T06:22:03;-14.80;92.50
57857;DHT22;43683;48.650;9.290;2022-12-18T06:24:28;-14.70;92.50
57857;DHT22;43683;48.650;9.290;2022-12-18T06:26:54;-14.70;92.40
57857;DHT22;43683;48.650;9.290;2022-12-18T06:29:20;-14.70;92.30
57857;DHT22;43683;48.650;9.290;2022-12-18T06:31:45;-14.70;92.30
57857;DHT22;43683;48.650;9.290;2022-12-18T06:34:11;-14.70;92.30
57857;DHT22;43683;48.650;9.290;2022-12-18T06:36:37;-14.80;92.40
57857;DHT22;43683;48.650;9.290;2022-12-18T06:39:02;-14.90;92.70
57857;DHT22;43683;48.650;9.290;2022-12-18T06:41:28;-14.90;92.40
57857;DHT22;43683;48.650;9.290;2022-12-18T06:43:53;-15.00;92.40
57857;DHT22;43683;48.650;9.290;2022-12-18T06:46:19;-15.00;92.50
57857;DHT22;43683;48.650;9.290;2022-12-18T06:48:47;-15.00;92.50
57857;DHT22;43683;48.650;9.290;2022-12-18T06:51:16;-15.10;92.50
57857;DHT22;43683;48.650;9.290;2022-12-18T06:53:42;-15.10;92.50
57857;DHT22;43683;48.650;9.290;2022-12-18T06:56:08;-15.20;92.50
57857;DHT22;43683;48.650;9.290;2022-12-18T06:58:33;-15.20;92.50
57857;DHT22;43683;48.650;9.290;2022-12-18T07:01:04;-15.30;92.50
57857;DHT22;43683;48.650;9.290;2022-12-18T07:03:30;-15.30;92.50
57857;DHT22;43683;48.650;9.290;2022-12-18T07:05:55;-15.30;92.60
57857;DHT22;43683;48.650;9.290;2022-12-18T07:08:21;-15.30;92.50
57857;DHT22;43683;48.650;9.290;2022-12-18T07:10:47;-15.40;92.50
57857;DHT22;43683;48.650;9.290;2022-12-18T07:13:15;-15.40;92.50
57857;DHT22;43683;48.650;9.290;2022-12-18T07:15:41;-15.40;92.50
57857;DHT22;43683;48.650;9.290;2022-12-18T07:18:06;-15.30;92.50
57857;DHT22;43683;48.650;9.290;2022-12-18T07:20:32;-15.30;92.40
57857;DHT22;43683;48.650;9.290;2022-12-18T07:22:57;-15.20;92.40
57857;DHT22;43683;48.650;9.290;2022-12-18T07:25:23;-15.20;92.30
57857;DHT22;43683;48.650;9.290;2022-12-18T07:27:48;-15.20;92.30
57857;DHT22;43683;48.650;9.290;2022-12-18T07:30:14;-15.10;92.20
57857;DHT22;43683;48.650;9.290;2022-12-18T07:32:39;-15.10;92.20
57857;DHT22;43683;48.650;9.290;2022-12-18T07:35:05;-15.00;92.10
57857;DHT22;43683;48.650;9.290;2022-12-18T07:37:31;-14.80;92.10
57857;DHT22;43683;48.650;9.290;2022-12-18T07:39:56;-14.70;92.00
57857;DHT22;43683;48.650;9.290;2022-12-18T07:42:22;-14.70;91.90
57857;DHT22;43683;48.650;9.290;2022-12-18T07:44:57;-14.50;91.90
57857;DHT22;43683;48.650;9.290;2022-12-18T07:47:23;-14.40;91.80
57857;DHT22;43683;48.650;9.290;2022-12-18T07:49:48;-14.30;91.70
57857;DHT22;43683;48.650;9.290;2022-12-18T07:52:14;-14.20;91.60
57857;DHT22;43683;48.650;9.290;2022-12-18T07:54:40;-14.00;91.60
57857;DHT22;43683;48.650;9.290;2022-12-18T07:57:06;-13.90;91.50
57857;DHT22;43683;48.650;9.290;2022-12-18T07:59:31;-13.80;91.40
57857;DHT22;43683;48.650;9.290;2022-12-18T08:01:57;-13.60;91.40
57857;DHT22;43683;48.650;9.290;2022-12-18T08:04:24;-13.50;91.30
57857;DHT22;43683;48.650;9.290;2022-12-18T08:06:49;-13.30;91.30
57857;DHT22;43683;48.650;9.290;2022-12-18T08:09:15;-13.10;91.20
57857;DHT22;43683;48.650;9.290;2022-12-18T08:11:40;-13.00;91.10
57857;DHT22;43683;48.650;9.290;2022-12-18T08:14:06;-12.80;91.10
57857;DHT22;43683;48.650;9.290;2022-12-18T08:16:31;-12.60;91.30
57857;DHT22;43683;48.650;9.290;2022-12-18T08:18:57;-12.50;91.00
57857;DHT22;43683;48.650;9.290;2022-12-18T08:21:25;-12.30;91.00
57857;DHT22;43683;48.650;9.290;2022-12-18T08:23:52;-12.20;90.90
57857;DHT22;43683;48.650;9.290;2022-12-18T08:26:19;-12.00;90.80
57857;DHT22;43683;48.650;9.290;2022-12-18T08:28:45;-11.80;90.80
57857;DHT22;43683;48.650;9.290;2022-12-18T08:31:11;-11.60;90.70
57857;DHT22;43683;48.650;9.290;2022-12-18T08:33:37;-11.40;90.70
57857;DHT22;43683;48.650;9.290;2022-12-18T08:36:04;-11.20;90.60
57857;DHT22;43683;48.650;9.290;2022-12-18T08:38:29;-11.00;90.70
57857;DHT22;43683;48.650;9.290;2022-12-18T08:41:00;-10.70;91.20
57857;DHT22;43683;48.650;9.290;2022-12-18T08:43:26;-10.30;92.00
57857;DHT22;43683;48.650;9.290;2022-12-18T08:46:10;-10.00;92.70
57857;DHT22;43683;48.650;9.290;2022-12-18T08:48:35;-9.50;93.30
57857;DHT22;43683;48.650;9.290;2022-12-18T08:51:01;-9.10;93.70
57857;DHT22;43683;48.650;9.290;2022-12-18T08:53:27;-8.90;93.90
57857;DHT22;43683;48.650;9.290;2022-12-18T08:55:53;-8.60;94.20
57857;DHT22;43683;48.650;9.290;2022-12-18T08:58:19;-8.30;94.50
57857;DHT22;43683;48.650;9.290;2022-12-18T09:00:45;-8.00;94.50
57857;DHT22;43683;48.650;9.290;2022-12-18T09:03:15;-7.80;94.30
57857;DHT22;43683;48.650;9.290;2022-12-18T09:05:41;-7.60;94.30
57857;DHT22;43683;48.650;9.290;2022-12-18T09:08:07;-7.40;94.40
57857;DHT22;43683;48.650;9.290;2022-12-18T09:10:33;-7.20;94.50
57857;DHT22;43683;48.650;9.290;2022-12-18T09:12:58;-7.00;94.70
57857;DHT22;43683;48.650;9.290;2022-12-18T09:15:25;-6.70;94.90
57857;DHT22;43683;48.650;9.290;2022-12-18T09:17:50;-6.50;95.00
57857;DHT22;43683;48.650;9.290;2022-12-18T09:20:18;-6.20;95.10
57857;DHT22;43683;48.650;9.290;2022-12-18T09:22:43;-6.00;95.10
57857;DHT22;43683;48.650;9.290;2022-12-18T09:25:09;-5.70;95.10
57857;DHT22;43683;48.650;9.290;2022-12-18T09:27:35;-5.50;94.80
57857;DHT22;43683;48.650;9.290;2022-12-18T09:30:01;-5.30;94.60
57857;DHT22;43683;48.650;9.290;2022-12-18T09:32:26;-5.20;94.40
57857;DHT22;43683;48.650;9.290;2022-12-18T09:34:52;-5.10;94.50
57857;DHT22;43683;48.650;9.290;2022-12-18T09:37:17;-4.90;94.60
57857;DHT22;43683;48.650;9.290;2022-12-18T09:39:43;-4.80;94.60
57857;DHT22;43683;48.650;9.290;2022-12-18T09:42:22;-4.60;94.60
57857;DHT22;43683;48.650;9.290;2022-12-18T09:44:52;-4.40;94.60
57857;DHT22;43683;48.650;9.290;2022-12-18T09:47:25;-4.20;94.50
57857;DHT22;43683;48.650;9.290;2022-12-18T09:49:58;-4.00;94.30
57857;DHT22;43683;48.650;9.290;2022-12-18T09:52:41;-3.70;94.20
57857;DHT22;43683;48.650;9.290;2022-12-18T09:55:25;-3.40;94.00
57857;DHT22;43683;48.650;9.290;2022-12-18T10:00:44;-3.00;93.40
57857;DHT22;43683;48.650;9.290;2022-12-18T10:03:12;-2.80;93.20
57857;DHT22;43683;48.650;9.290;2022-12-18T10:05:43;-2.70;93.20
57857;DHT22;43683;48.650;9.290;2022-12-18T10:08:28;-2.60;92.60
57857;DHT22;43683;48.650;9.290;2022-12-18T10:11:20;-2.50;92.40
57857;DHT22;43683;48.650;9.290;2022-12-18T10:13:55;-2.40;92.30
57857;DHT22;43683;48.650;9.290;2022-12-18T10:22:36;-1.70;92.40
57857;DHT22;43683;48.650;9.290;2022-12-18T10:27:57;-1.50;92.30
57857;DHT22;43683;48.650;9.290;2022-12-18T10:30:24;-1.30;92.40
57857;DHT22;43683;48.650;9.290;2022-12-18T10:32:50;-1.10;92.40
57857;DHT22;43683;48.650;9.290;2022-12-18T10:35:25;-0.90;92.40
57857;DHT22;43683;48.650;9.290;2022-12-18T10:46:03;0.00;92.40
57857;DHT22;43683;48.650;9.290;2022-12-18T10:48:31;0.20;92.40
57857;DHT22;43683;48.650;9.290;2022-12-18T10:50:58;0.40;92.50
57857;DHT22;43683;48.650;9.290;2022-12-18T10:53:27;0.50;92.30
57857;DHT22;43683;48.650;9.290;2022-12-18T10:55:55;0.60;92.20
57857;DHT22;43683;48.650;9.290;2022-12-18T11:01:09;0.80;92.10
57857;DHT22;43683;48.650;9.290;2022-12-18T11:04:08;0.80;91.90
57857;DHT22;43683;48.650;9.290;2022-12-18T11:06:34;0.90;91.80
57857;DHT22;43683;48.650;9.290;2022-12-18T11:09:04;0.90;91.80
57857;DHT22;43683;48.650;9.290;2022-12-18T11:11:29;1.10;91.70
57857;DHT22;43683;48.650;9.290;2022-12-18T11:14:12;1.30;91.70
57857;DHT22;43683;48.650;9.290;2022-12-18T11:16:44;1.60;91.50
57857;DHT22;43683;48.650;9.290;2022-12-18T11:19:28;1.80;91.40
57857;DHT22;43683;48.650;9.290;2022-12-18T11:21:55;2.00;91.30
57857;DHT22;43683;48.650;9.290;2022-12-18T11:24:29;2.20;91.40
57857;DHT22;43683;48.650;9.290;2022-12-18T11:27:00;2.30;91.00
57857;DHT22;43683;48.650;9.290;2022-12-18T11:29:37;2.30;91.00
57857;DHT22;43683;48.650;9.290;2022-12-18T11:37:34;2.40;90.20
57857;DHT22;43683;48.650;9.290;2022-12-18T11:40:17;2.50;90.40
57857;DHT22;43683;48.650;9.290;2022-12-18T11:42:54;2.60;90.00
57857;DHT22;43683;48.650;9.290;2022-12-18T11:45:29;2.60;90.10
57857;DHT22;43683;48.650;9.290;2022-12-18T11:50:50;2.60;90.50
57857;DHT22;43683;48.650;9.290;2022-12-18T11:53:16;2.70;90.40
57857;DHT22;43683;48.650;9.290;2022-12-18T11:58:46;2.80;90.40
57857;DHT22;43683;48.650;9.290;2022-12-18T12:12:14;2.60;89.50
57857;DHT22;43683;48.650;9.290;2022-12-18T12:17:30;2.40;90.30
57857;DHT22;43683;48.650;9.290;2022-12-18T12:20:20;2.30;90.20
57857;DHT22;43683;48.650;9.290;2022-12-18T12:28:14;2.20;90.10
57857;DHT22;43683;48.650;9.290;2022-12-18T12:33:23;2.10;90.10
57857;DHT22;43683;48.650;9.290;2022-12-18T12:38:42;2.00;89.50
57857;DHT22;43683;48.650;9.290;2022-12-18T12:41:13;1.80;89.40
57857;DHT22;43683;48.650;9.290;2022-12-18T12:44:01;1.70;89.40
57857;DHT22;43683;48.650;9.290;2022-12-18T12:46:32;1.50;89.30
57857;DHT22;43683;48.650;9.290;2022-12-18T12:49:02;1.50;88.70
57857;DHT22;43683;48.650;9.290;2022-12-18T12:51:35;1.40;88.40
57857;DHT22;43683;48.650;9.290;2022-12-18T12:54:05;1.10;88.30
57857;DHT22;43683;48.650;9.290;2022-12-18T13:08:03;0.70;86.70
57857;DHT22;43683;48.650;9.290;2022-12-18T13:13:12;0.70;86.60
57857;DHT22;43683;48.650;9.290;2022-12-18T13:15:48;0.60;86.50
57857;DHT22;43683;48.650;9.290;2022-12-18T13:18:23;0.50;86.50
57857;DHT22;43683;48.650;9.290;2022-12-18T13:21:01;0.50;86.60
57857;DHT22;43683;48.650;9.290;2022-12-18T13:34:14;0.30;86.00
57857;DHT22;43683;48.650;9.290;2022-12-18T13:36:41;0.20;85.90
57857;DHT22;43683;48.650;9.290;2022-12-18T13:39:54;0.20;86.00
57857;DHT22;43683;48.650;9.290;2022-12-18T13:44:38;0.00;85.30
57857;DHT22;43683;48.650;9.290;2022-12-18T13:47:26;0.00;85.20
57857;DHT22;43683;48.650;9.290;2022-12-18T13:49:54;-0.10;85.00
57857;DHT22;43683;48.650;9.290;2022-12-18T13:52:25;-0.20;85.00
57857;DHT22;43683;48.650;9.290;2022-12-18T13:54:56;-0.20;85.00
57857;DHT22;43683;48.650;9.290;2022-12-18T13:57:31;-0.20;85.00
57857;DHT22;43683;48.650;9.290;2022-12-18T13:59:58;-0.10;85.00
57857;DHT22;43683;48.650;9.290;2022-12-18T14:02:26;-0.10;84.90
57857;DHT22;43683;48.650;9.290;2022-12-18T14:04:53;-0.10;84.80
57857;DHT22;43683;48.650;9.290;2022-12-18T14:07:21;-0.10;85.10
57857;DHT22;43683;48.650;9.290;2022-12-18T14:09:53;-0.20;85.30
57857;DHT22;43683;48.650;9.290;2022-12-18T14:12:26;-0.20;85.50
57857;DHT22;43683;48.650;9.290;2022-12-18T14:20:48;-0.80;86.10
57857;DHT22;43683;48.650;9.290;2022-12-18T14:25:52;-1.20;86.70
57857;DHT22;43683;48.650;9.290;2022-12-18T14:28:17;-1.30;87.10
57857;DHT22;43683;48.650;9.290;2022-12-18T14:30:45;-1.50;87.40
57857;DHT22;43683;48.650;9.290;2022-12-18T14:33:12;-1.70;87.50
57857;DHT22;43683;48.650;9.290;2022-12-18T14:36:00;-1.90;87.80
57857;DHT22;43683;48.650;9.290;2022-12-18T14:38:30;-2.00;87.90
57857;DHT22;43683;48.650;9.290;2022-12-18T14:43:33;-2.40;88.20
57857;DHT22;43683;48.650;9.290;2022-12-18T14:46:00;-2.50;88.40
57857;DHT22;43683;48.650;9.290;2022-12-18T14:48:41;-2.70;88.60
57857;DHT22;43683;48.650;9.290;2022-12-18T14:53:57;-3.00;88.80
57857;DHT22;43683;48.650;9.290;2022-12-18T14:56:31;-3.10;89.00
57857;DHT22;43683;48.650;9.290;2022-12-18T14:59:02;-3.30;89.20
57857;DHT22;43683;48.650;9.290;2022-12-18T15:01:37;-3.50;89.30
57857;DHT22;43683;48.650;9.290;2022-12-18T15:04:23;-3.60;89.50
57857;DHT22;43683;48.650;9.290;2022-12-18T15:07:21;-3.80;89.60
57857;DHT22;43683;48.650;9.290;2022-12-18T15:10:15;-4.00;89.80
57857;DHT22;43683;48.650;9.290;2022-12-18T15:12:45;-4.20;89.80
57857;DHT22;43683;48.650;9.290;2022-12-18T15:17:59;-4.60;90.00
57857;DHT22;43683;48.650;9.290;2022-12-18T15:20:31;-4.80;90.10
57857;DHT22;43683;48.650;9.290;2022-12-18T15:22:58;-4.90;90.20
57857;DHT22;43683;48.650;9.290;2022-12-18T15:25:35;-5.10;90.10
57857;DHT22;43683;48.650;9.290;2022-12-18T15:28:03;-5.20;90.20
57857;DHT22;43683;48.650;9.290;2022-12-18T15:30:29;-5.40;90.10
57857;DHT22;43683;48.650;9.290;2022-12-18T15:33:25;-5.50;90.10
57857;DHT22;43683;48.650;9.290;2022-12-18T15:35:58;-5.70;90.10
57857;DHT22;43683;48.650;9.290;2022-12-18T15:38:24;-5.80;90.10
57857;DHT22;43683;48.650;9.290;2022-12-18T15:40:50;-5.80;90.10
57857;DHT22;43683;48.650;9.290;2022-12-18T15:43:15;-5.80;90.00
57857;DHT22;43683;48.650;9.290;2022-12-18T15:46:04;-5.90;89.90
57857;DHT22;43683;48.650;9.290;2022-12-18T15:48:31;-5.90;89.80
57857;DHT22;43683;48.650;9.290;2022-12-18T15:50:57;-6.00;89.60
57857;DHT22;43683;48.650;9.290;2022-12-18T15:53:25;-6.10;89.60
57857;DHT22;43683;48.650;9.290;2022-12-18T15:55:51;-6.20;89.80
57857;DHT22;43683;48.650;9.290;2022-12-18T15:58:35;-6.40;89.90
57857;DHT22;43683;48.650;9.290;2022-12-18T16:01:01;-6.50;90.00
57857;DHT22;43683;48.650;9.290;2022-12-18T16:03:27;-6.60;90.00
57857;DHT22;43683;48.650;9.290;2022-12-18T16:05:53;-6.70;90.00
57857;DHT22;43683;48.650;9.290;2022-12-18T16:08:19;-6.80;90.10
57857;DHT22;43683;48.650;9.290;2022-12-18T16:10:44;-6.90;90.10
57857;DHT22;43683;48.650;9.290;2022-12-18T16:13:12;-6.90;90.10
57857;DHT22;43683;48.650;9.290;2022-12-18T16:15:40;-6.90;90.10
57857;DHT22;43683;48.650;9.290;2022-12-18T16:18:06;-7.00;90.00
57857;DHT22;43683;48.650;9.290;2022-12-18T16:20:31;-7.00;89.90
57857;DHT22;43683;48.650;9.290;2022-12-18T16:22:57;-7.10;89.70
57857;DHT22;43683;48.650;9.290;2022-12-18T16:25:25;-7.10;89.60
57857;DHT22;43683;48.650;9.290;2022-12-18T16:27:52;-7.10;89.40
57857;DHT22;43683;48.650;9.290;2022-12-18T16:30:21;-7.00;89.30
57857;DHT22;43683;48.650;9.290;2022-12-18T16:32:47;-7.00;89.10
57857;DHT22;43683;48.650;9.290;2022-12-18T16:35:14;-7.00;88.70
57857;DHT22;43683;48.650;9.290;2022-12-18T16:37:40;-6.90;88.50
57857;DHT22;43683;48.650;9.290;2022-12-18T16:40:08;-6.90;88.20
57857;DHT22;43683;48.650;9.290;2022-12-18T16:42:39;-6.90;87.90
57857;DHT22;43683;48.650;9.290;2022-12-18T16:45:07;-6.70;87.60
57857;DHT22;43683;48.650;9.290;2022-12-18T16:47:32;-6.70;87.30
57857;DHT22;43683;48.650;9.290;2022-12-18T16:49:58;-6.60;87.10
57857;DHT22;43683;48.650;9.290;2022-12-18T16:52:24;-6.60;87.00
57857;DHT22;43683;48.650;9.290;2022-12-18T16:54:50;-6.50;86.90
57857;DHT22;43683;48.650;9.290;2022-12-18T16:57:17;-6.50;86.80
57857;DHT22;43683;48.650;9.290;2022-12-18T16:59:43;-6.50;86.80
57857;DHT22;43683;48.650;9.290;2022-12-18T17:02:17;-6.40;86.80
57857;DHT22;43683;48.650;9.290;2022-12-18T17:04:43;-6.40;86.60
57857;DHT22;43683;48.650;9.290;2022-12-18T17:07:09;-6.30;86.50
57857;DHT22;43683;48.650;9.290;2022-12-18T17:09:35;-6.30;86.40
57857;DHT22;43683;48.650;9.290;2022-12-18T17:12:01;-6.20;86.50
57857;DHT22;43683;48.650;9.290;2022-12-18T17:14:26;-6.20;86.50
57857;DHT22;43683;48.650;9.290;2022-12-18T17:16:53;-6.10;86.50
57857;DHT22;43683;48.650;9.290;2022-12-18T17:19:19;-6.00;86.50
57857;DHT22;43683;48.650;9.290;2022-12-18T17:21:47;-6.00;86.30
57857;DHT22;43683;48.650;9.290;2022-12-18T17:24:13;-5.90;86.10
57857;DHT22;43683;48.650;9.290;2022-12-18T17:26:38;-5.70;86.00
57857;DHT22;43683;48.650;9.290;2022-12-18T17:29:05;-5.60;85.70
57857;DHT22;43683;48.650;9.290;2022-12-18T17:31:32;-5.50;85.60
57857;DHT22;43683;48.650;9.290;2022-12-18T17:33:59;-5.40;85.40
57857;DHT22;43683;48.650;9.290;2022-12-18T17:36:25;-5.30;85.30
57857;DHT22;43683;48.650;9.290;2022-12-18T17:38:58;-5.20;85.10
57857;DHT22;43683;48.650;9.290;2022-12-18T17:41:25;-5.10;85.00
57857;DHT22;43683;48.650;9.290;2022-12-18T17:43:52;-5.00;85.10